sensor_id;sensor_type;location;lat;lon;timestamp;temperature;humidity
4795;DHT22;2411;47.060;15.064;2024-01-11T00:02:13;-6.10;1.00
4795;DHT22;2411;47.060;15.064;2024-01-11T00:04:41;-6.10;1.00
4795;DHT22;2411;47.060;15.064;2024-01-11T00:07:08;-6.10;1.00
4795;DHT22;2411;47.060;15.064;2024-01-11T00:09:42;-6.00;1.00
4795;DHT22;2411;47.060;15.064;2024-01-11T00:12:09;-5.90;1.00
4795;DHT22;2411;47.060;15.064;2024-01-11T00:14:37;-5.80;1.00
4795;DHT22;2411;47.060;15.064;2024-01-11T00:17:04;-5.90;1.00
4795;DHT22;2411;47.060;15.064;2024-01-11T00:19:31;-5.80;1.00
4795;DHT22;2411;47.060;15.064;2024-01-11T00:21:59;-5.80;1.00
4795;DHT22;2411;47.060;15.064;2024-01-11T00:24:26;-5.80;1.00
4795;DHT22;2411;47.060;15.064;2024-01-11T00:26:53;-5.80;1.00
4795;DHT22;2411;47.060;15.064;2024-01-11T00:29:20;-5.90;1.00
4795;DHT22;2411;47.060;15.064;2024-01-11T00:31:47;-5.90;1.00
4795;DHT22;2411;47.060;15.064;2024-01-11T00:34:14;-5.90;1.00
4795;DHT22;2411;47.060;15.064;2024-01-11T00:36:42;-5.90;1.00
4795;DHT22;2411;47.060;15.064;2024-01-11T00:39:09;-5.90;1.00
4795;DHT22;2411;47.060;15.064;2024-01-11T00:41:38;-5.90;1.00
4795;DHT22;2411;47.060;15.064;2024-01-11T00:44:06;-6.00;1.00
4795;DHT22;2411;47.060;15.064;2024-01-11T00:46:34;-6.00;1.00
4795;DHT22;2411;47.060;15.064;2024-01-11T00:49:01;-6.10;1.00
4795;DHT22;2411;47.060;15.064;2024-01-11T00:51:29;-6.30;1.00
4795;DHT22;2411;47.060;15.064;2024-01-11T00:53:56;-6.40;1.00
4795;DHT22;2411;47.060;15.064;2024-01-11T00:56:23;-6.40;1.00
4795;DHT22;2411;47.060;15.064;2024-01-11T00:58:50;-6.40;1.00
4795;DHT22;2411;47.060;15.064;2024-01-11T01:01:17;-6.40;1.00
4795;DHT22;2411;47.060;15.064;2024-01-11T01:03:45;-6.40;1.00
4795;DHT22;2411;47.060;15.064;2024-01-11T01:06:12;-6.40;1.00
4795;DHT22;2411;47.060;15.064;2024-01-11T01:08:39;-6.40;1.00
4795;DHT22;2411;47.060;15.064;2024-01-11T01:11:06;-6.30;1.00
4795;DHT22;2411;47.060;15.064;2024-01-11T01:13:34;-6.30;1.00
4795;DHT22;2411;47.060;15.064;2024-01-11T01:16:01;-6.20;1.00
4795;DHT22;2411;47.060;15.064;2024-01-11T01:18:28;-6.20;1.00
4795;DHT22;2411;47.060;15.064;2024-01-11T01:20:56;-6.20;1.00
4795;DHT22;2411;47.060;15.064;2024-01-11T01:23:23;-6.20;1.00
4795;DHT22;2411;47.060;15.064;2024-01-11T01:25:50;-6.30;1.00
4795;DHT22;2411;47.060;15.064;2024-01-11T01:28:17;-6.30;1.00
4795;DHT22;2411;47.060;15.064;2024-01-11T01:30:44;-6.40;1.00
4795;DHT22;2411;47.060;15.064;2024-01-11T01:33:11;-6.30;1.00
4795;DHT22;2411;47.060;15.064;2024-01-11T01:35:39;-6.30;1.00
4795;DHT22;2411;47.060;15.064;2024-01-11T01:38:06;-6.30;1.00
4795;DHT22;2411;47.060;15.064;2024-01-11T01:40:33;-6.20;1.00
4795;DHT22;2411;47.060;15.064;2024-01-11T01:43:00;-6.10;1.00
4795;DHT22;2411;47.060;15.064;2024-01-11T01:45:28;-6.10;1.00
4795;DHT22;2411;47.060;15.064;2024-01-11T01:47:55;-6.20;1.00
4795;DHT22;2411;47.060;15.064;2024-01-11T01:50:22;-6.30;1.00
4795;DHT22;2411;47.060;15.064;2024-01-11T01:52:50;-6.40;1.00
4795;DHT22;2411;47.060;15.064;2024-01-11T01:55:19;-6.40;1.00
4795;DHT22;2411;47.060;15.064;2024-01-11T01:57:47;-6.40;1.00
4795;DHT22;2411;47.060;15.064;2024-01-11T02:00:15;-6.40;1.00
4795;DHT22;2411;47.060;15.064;2024-01-11T02:02:44;-6.50;1.00
4795;DHT22;2411;47.060;15.064;2024-01-11T02:05:14;-6.50;1.00
4795;DHT22;2411;47.060;15.064;2024-01-11T02:07:44;-6.50;1.00
4795;DHT22;2411;47.060;15.064;2024-01-11T02:10:12;-6.40;1.00
4795;DHT22;2411;47.060;15.064;2024-01-11T02:12:39;-6.40;1.00
4795;DHT22;2411;47.060;15.064;2024-01-11T02:15:08;-6.40;1.00
4795;DHT22;2411;47.060;15.064;2024-01-11T02:17:35;-6.40;1.00
4795;DHT22;2411;47.060;15.064;2024-01-11T02:20:03;-6.40;1.00
4795;DHT22;2411;47.060;15.064;2024-01-11T02:22:35;-6.40;1.00
4795;DHT22;2411;47.060;15.064;2024-01-11T02:25:03;-6.40;1.00
4795;DHT22;2411;47.060;15.064;2024-01-11T02:27:30;-6.40;1.00
4795;DHT22;2411;47.060;15.064;2024-01-11T02:29:57;-6.50;1.00
4795;DHT22;2411;47.060;15.064;2024-01-11T02:32:24;-6.40;1.00
4795;DHT22;2411;47.060;15.064;2024-01-11T02:34:52;-6.40;1.00
4795;DHT22;2411;47.060;15.064;2024-01-11T02:37:19;-6.50;1.00
4795;DHT22;2411;47.060;15.064;2024-01-11T02:39:47;-6.50;1.00
4795;DHT22;2411;47.060;15.064;2024-01-11T02:42:14;-6.50;1.00
4795;DHT22;2411;47.060;15.064;2024-01-11T02:44:43;-6.50;1.00
4795;DHT22;2411;47.060;15.064;2024-01-11T02:47:10;-6.60;1.00
4795;DHT22;2411;47.060;15.064;2024-01-11T02:49:38;-6.70;1.00
4795;DHT22;2411;47.060;15.064;2024-01-11T02:52:05;-6.80;1.00
4795;DHT22;2411;47.060;15.064;2024-01-11T02:54:33;-6.80;1.00
4795;DHT22;2411;47.060;15.064;2024-01-11T02:57:00;-6.90;1.00
4795;DHT22;2411;47.060;15.064;2024-01-11T02:59:27;-6.80;1.00
4795;DHT22;2411;47.060;15.064;2024-01-11T03:01:55;-6.80;1.00
4795;DHT22;2411;47.060;15.064;2024-01-11T03:04:22;-6.80;1.00
4795;DHT22;2411;47.060;15.064;2024-01-11T03:06:49;-6.70;1.00
4795;DHT22;2411;47.060;15.064;2024-01-11T03:09:17;-6.70;1.00
4795;DHT22;2411;47.060;15.064;2024-01-11T03:11:44;-6.70;1.00
4795;DHT22;2411;47.060;15.064;2024-01-11T03:14:11;-6.60;1.00
4795;DHT22;2411;47.060;15.064;2024-01-11T03:16:38;-6.60;1.00
4795;DHT22;2411;47.060;15.064;2024-01-11T03:19:06;-6.60;1.00
4795;DHT22;2411;47.060;15.064;2024-01-11T03:21:34;-6.50;1.00
4795;DHT22;2411;47.060;15.064;2024-01-11T03:24:01;-6.50;1.00
4795;DHT22;2411;47.060;15.064;2024-01-11T03:26:28;-6.50;1.00
4795;DHT22;2411;47.060;15.064;2024-01-11T03:28:55;-6.50;1.00
4795;DHT22;2411;47.060;15.064;2024-01-11T03:31:22;-6.50;1.00
4795;DHT22;2411;47.060;15.064;2024-01-11T03:33:49;-6.60;1.00
4795;DHT22;2411;47.060;15.064;2024-01-11T03:36:17;-6.60;1.00
4795;DHT22;2411;47.060;15.064;2024-01-11T03:38:44;-6.60;1.00
4795;DHT22;2411;47.060;15.064;2024-01-11T03:41:12;-6.60;1.00
4795;DHT22;2411;47.060;15.064;2024-01-11T03:43:39;-6.60;1.00
4795;DHT22;2411;47.060;15.064;2024-01-11T03:46:06;-6.70;1.00
4795;DHT22;2411;47.060;15.064;2024-01-11T03:48:34;-6.80;1.00
4795;DHT22;2411;47.060;15.064;2024-01-11T03:51:03;-7.00;1.00
4795;DHT22;2411;47.060;15.064;2024-01-11T03:53:30;-6.90;1.00
4795;DHT22;2411;47.060;15.064;2024-01-11T03:56:01;-6.90;1.00
4795;DHT22;2411;47.060;15.064;2024-01-11T03:58:28;-6.90;1.00
4795;DHT22;2411;47.060;15.064;2024-01-11T04:00:56;-6.90;1.00
4795;DHT22;2411;47.060;15.064;2024-01-11T04:03:23;-6.80;1.00
4795;DHT22;2411;47.060;15.064;2024-01-11T04:05:50;-6.90;1.00
4795;DHT22;2411;47.060;15.064;2024-01-11T04:08:17;-6.80;1.00
4795;DHT22;2411;47.060;15.064;2024-01-11T04:10:45;-6.80;1.00
4795;DHT22;2411;47.060;15.064;2024-01-11T04:13:12;-6.70;1.00
4795;DHT22;2411;47.060;15.064;2024-01-11T04:15:39;-6.70;1.00
4795;DHT22;2411;47.060;15.064;2024-01-11T04:18:06;-6.70;1.00
4795;DHT22;2411;47.060;15.064;2024-01-11T04:20:34;-6.70;1.00
4795;DHT22;2411;47.060;15.064;2024-01-11T04:23:01;-6.70;1.00
4795;DHT22;2411;47.060;15.064;2024-01-11T04:25:28;-6.80;1.00
4795;DHT22;2411;47.060;15.064;2024-01-11T04:27:56;-6.70;1.00
4795;DHT22;2411;47.060;15.064;2024-01-11T04:30:23;-6.70;1.00
4795;DHT22;2411;47.060;15.064;2024-01-11T04:32:50;-6.80;1.00
4795;DHT22;2411;47.060;15.064;2024-01-11T04:35:18;-6.70;1.00
4795;DHT22;2411;47.060;15.064;2024-01-11T04:37:45;-6.80;1.00
4795;DHT22;2411;47.060;15.064;2024-01-11T04:40:12;-6.90;1.00
4795;DHT22;2411;47.060;15.064;2024-01-11T04:42:39;-6.90;1.00
4795;DHT22;2411;47.060;15.064;2024-01-11T04:45:06;-6.90;1.00
4795;DHT22;2411;47.060;15.064;2024-01-11T04:47:34;-6.90;1.00
4795;DHT22;2411;47.060;15.064;2024-01-11T04:50:01;-6.90;1.00
4795;DHT22;2411;47.060;15.064;2024-01-11T04:52:28;-6.80;1.00
4795;DHT22;2411;47.060;15.064;2024-01-11T04:54:55;-6.80;1.00
4795;DHT22;2411;47.060;15.064;2024-01-11T04:57:22;-6.80;1.00
4795;DHT22;2411;47.060;15.064;2024-01-11T04:59:50;-6.70;1.00
4795;DHT22;2411;47.060;15.064;2024-01-11T05:02:17;-6.70;1.00
4795;DHT22;2411;47.060;15.064;2024-01-11T05:04:48;-6.70;1.00
4795;DHT22;2411;47.060;15.064;2024-01-11T05:07:15;-6.70;1.00
4795;DHT22;2411;47.060;15.064;2024-01-11T05:09:42;-6.70;1.00
4795;DHT22;2411;47.060;15.064;2024-01-11T05:12:09;-6.60;1.00
4795;DHT22;2411;47.060;15.064;2024-01-11T05:14:36;-6.60;1.00
4795;DHT22;2411;47.060;15.064;2024-01-11T05:17:04;-6.70;1.00
4795;DHT22;2411;47.060;15.064;2024-01-11T05:19:31;-6.70;1.00
4795;DHT22;2411;47.060;15.064;2024-01-11T05:21:59;-6.70;1.00
4795;DHT22;2411;47.060;15.064;2024-01-11T05:24:26;-6.60;1.00
4795;DHT22;2411;47.060;15.064;2024-01-11T05:26:53;-6.60;1.00
4795;DHT22;2411;47.060;15.064;2024-01-11T05:29:20;-6.70;1.00
4795;DHT22;2411;47.060;15.064;2024-01-11T05:31:47;-6.80;1.00
4795;DHT22;2411;47.060;15.064;2024-01-11T05:34:15;-6.90;1.00
4795;DHT22;2411;47.060;15.064;2024-01-11T05:36:42;-6.90;1.00
4795;DHT22;2411;47.060;15.064;2024-01-11T05:39:10;-7.10;1.00
4795;DHT22;2411;47.060;15.064;2024-01-11T05:41:37;-7.10;1.00
4795;DHT22;2411;47.060;15.064;2024-01-11T05:44:04;-7.20;1.00
4795;DHT22;2411;47.060;15.064;2024-01-11T05:46:31;-7.20;1.00
4795;DHT22;2411;47.060;15.064;2024-01-11T05:49:00;-7.10;1.00
4795;DHT22;2411;47.060;15.064;2024-01-11T05:51:27;-7.10;1.00
4795;DHT22;2411;47.060;15.064;2024-01-11T05:53:54;-7.00;1.00
4795;DHT22;2411;47.060;15.064;2024-01-11T05:56:22;-7.00;1.00
4795;DHT22;2411;47.060;15.064;2024-01-11T05:58:49;-7.00;1.00
4795;DHT22;2411;47.060;15.064;2024-01-11T06:01:16;-7.00;1.00
4795;DHT22;2411;47.060;15.064;2024-01-11T06:03:44;-7.00;1.00
4795;DHT22;2411;47.060;15.064;2024-01-11T06:06:11;-7.00;1.00
4795;DHT22;2411;47.060;15.064;2024-01-11T06:08:38;-7.00;1.00
4795;DHT22;2411;47.060;15.064;2024-01-11T06:11:06;-7.00;1.00
4795;DHT22;2411;47.060;15.064;2024-01-11T06:13:35;-7.00;1.00
4795;DHT22;2411;47.060;15.064;2024-01-11T06:16:02;-6.90;1.00
4795;DHT22;2411;47.060;15.064;2024-01-11T06:18:29;-7.00;1.00
4795;DHT22;2411;47.060;15.064;2024-01-11T06:20:57;-7.00;1.00
4795;DHT22;2411;47.060;15.064;2024-01-11T06:23:25;-7.00;1.00
4795;DHT22;2411;47.060;15.064;2024-01-11T06:25:53;-7.10;1.00
4795;DHT22;2411;47.060;15.064;2024-01-11T06:28:20;-7.20;1.00
4795;DHT22;2411;47.060;15.064;2024-01-11T06:30:47;-7.30;1.00
4795;DHT22;2411;47.060;15.064;2024-01-11T06:33:14;-7.30;1.00
4795;DHT22;2411;47.060;15.064;2024-01-11T06:35:41;-7.40;1.00
4795;DHT22;2411;47.060;15.064;2024-01-11T06:38:09;-7.30;1.00
4795;DHT22;2411;47.060;15.064;2024-01-11T06:40:36;-7.30;1.00
4795;DHT22;2411;47.060;15.064;2024-01-11T06:43:03;-7.20;1.00
4795;DHT22;2411;47.060;15.064;2024-01-11T06:45:31;-7.10;1.00
4795;DHT22;2411;47.060;15.064;2024-01-11T06:47:58;-7.00;1.00
4795;DHT22;2411;47.060;15.064;2024-01-11T06:50:26;-6.90;1.00
4795;DHT22;2411;47.060;15.064;2024-01-11T06:52:53;-6.80;1.00
4795;DHT22;2411;47.060;15.064;2024-01-11T06:55:20;-6.60;1.00
4795;DHT22;2411;47.060;15.064;2024-01-11T06:57:47;-6.50;1.00
4795;DHT22;2411;47.060;15.064;2024-01-11T07:00:15;-6.50;1.00
4795;DHT22;2411;47.060;15.064;2024-01-11T07:02:42;-6.60;1.00
4795;DHT22;2411;47.060;15.064;2024-01-11T07:05:09;-6.60;1.00
4795;DHT22;2411;47.060;15.064;2024-01-11T07:07:37;-6.70;1.00
4795;DHT22;2411;47.060;15.064;2024-01-11T07:10:04;-6.70;1.00
4795;DHT22;2411;47.060;15.064;2024-01-11T07:12:32;-6.80;1.00
4795;DHT22;2411;47.060;15.064;2024-01-11T07:15:00;-6.90;1.00
4795;DHT22;2411;47.060;15.064;2024-01-11T07:17:27;-6.90;1.00
4795;DHT22;2411;47.060;15.064;2024-01-11T07:19:54;-6.90;1.00
4795;DHT22;2411;47.060;15.064;2024-01-11T07:22:22;-6.90;1.00
4795;DHT22;2411;47.060;15.064;2024-01-11T07:24:49;-6.90;1.00
4795;DHT22;2411;47.060;15.064;2024-01-11T07:27:16;-6.90;1.00
4795;DHT22;2411;47.060;15.064;2024-01-11T07:29:43;-6.80;1.00
4795;DHT22;2411;47.060;15.064;2024-01-11T07:32:10;-6.70;1.00
4795;DHT22;2411;47.060;15.064;2024-01-11T07:34:38;-6.60;1.00
4795;DHT22;2411;47.060;15.064;2024-01-11T07:37:06;-6.50;1.00
4795;DHT22;2411;47.060;15.064;2024-01-11T07:39:33;-6.40;1.00
4795;DHT22;2411;47.060;15.064;2024-01-11T07:42:01;-6.30;1.00
4795;DHT22;2411;47.060;15.064;2024-01-11T07:44:28;-6.20;1.00
4795;DHT22;2411;47.060;15.064;2024-01-11T07:46:55;-6.20;1.00
4795;DHT22;2411;47.060;15.064;2024-01-11T07:49:27;-6.10;1.00
4795;DHT22;2411;47.060;15.064;2024-01-11T07:51:55;-6.00;1.00
4795;DHT22;2411;47.060;15.064;2024-01-11T07:54:22;-5.90;1.00
4795;DHT22;2411;47.060;15.064;2024-01-11T07:56:49;-5.90;1.00
4795;DHT22;2411;47.060;15.064;2024-01-11T07:59:16;-5.80;1.00
4795;DHT22;2411;47.060;15.064;2024-01-11T08:01:43;-5.80;1.00
4795;DHT22;2411;47.060;15.064;2024-01-11T08:04:12;-5.80;1.00
4795;DHT22;2411;47.060;15.064;2024-01-11T08:06:39;-5.80;1.00
4795;DHT22;2411;47.060;15.064;2024-01-11T08:09:07;-5.70;1.00
4795;DHT22;2411;47.060;15.064;2024-01-11T08:11:37;-5.70;1.00
4795;DHT22;2411;47.060;15.064;2024-01-11T08:14:08;-5.60;1.00
4795;DHT22;2411;47.060;15.064;2024-01-11T08:16:35;-5.50;1.00
4795;DHT22;2411;47.060;15.064;2024-01-11T08:19:03;-5.50;1.00
4795;DHT22;2411;47.060;15.064;2024-01-11T08:21:30;-5.40;1.00
4795;DHT22;2411;47.060;15.064;2024-01-11T08:23:57;-5.30;1.00
4795;DHT22;2411;47.060;15.064;2024-01-11T08:26:29;-5.20;1.00
4795;DHT22;2411;47.060;15.064;2024-01-11T08:28:57;-5.10;1.00
4795;DHT22;2411;47.060;15.064;2024-01-11T08:31:25;-5.00;1.00
4795;DHT22;2411;47.060;15.064;2024-01-11T08:33:53;-4.90;1.00
4795;DHT22;2411;47.060;15.064;2024-01-11T08:36:20;-4.80;1.00
4795;DHT22;2411;47.060;15.064;2024-01-11T08:38:48;-4.70;1.00
4795;DHT22;2411;47.060;15.064;2024-01-11T08:41:16;-4.60;1.00
4795;DHT22;2411;47.060;15.064;2024-01-11T08:43:43;-4.60;1.00
4795;DHT22;2411;47.060;15.064;2024-01-11T08:46:11;-4.50;1.00
4795;DHT22;2411;47.060;15.064;2024-01-11T08:48:38;-4.40;1.00
4795;DHT22;2411;47.060;15.064;2024-01-11T08:51:05;-4.40;1.00
4795;DHT22;2411;47.060;15.064;2024-01-11T08:53:33;-4.30;1.00
4795;DHT22;2411;47.060;15.064;2024-01-11T08:56:00;-4.20;1.00
4795;DHT22;2411;47.060;15.064;2024-01-11T08:58:28;-4.20;1.00
4795;DHT22;2411;47.060;15.064;2024-01-11T09:00:55;-4.10;1.00
4795;DHT22;2411;47.060;15.064;2024-01-11T09:03:22;-4.00;1.00
4795;DHT22;2411;47.060;15.064;2024-01-11T09:05:50;-4.00;1.00
4795;DHT22;2411;47.060;15.064;2024-01-11T09:08:17;-3.90;1.00
4795;DHT22;2411;47.060;15.064;2024-01-11T09:10:44;-3.80;1.00
4795;DHT22;2411;47.060;15.064;2024-01-11T09:13:12;-3.80;1.00
4795;DHT22;2411;47.060;15.064;2024-01-11T09:15:41;-3.70;1.00
4795;DHT22;2411;47.060;15.064;2024-01-11T09:18:08;-3.60;1.00
4795;DHT22;2411;47.060;15.064;2024-01-11T09:20:36;-3.50;1.00
4795;DHT22;2411;47.060;15.064;2024-01-11T09:23:04;-3.40;1.00
4795;DHT22;2411;47.060;15.064;2024-01-11T09:25:31;-3.40;1.00
4795;DHT22;2411;47.060;15.064;2024-01-11T09:27:59;-3.30;1.00
4795;DHT22;2411;47.060;15.064;2024-01-11T09:30:26;-3.30;1.00
4795;DHT22;2411;47.060;15.064;2024-01-11T09:32:53;-3.20;1.00
4795;DHT22;2411;47.060;15.064;2024-01-11T09:35:24;-3.20;1.00
4795;DHT22;2411;47.060;15.064;2024-01-11T09:37:51;-3.10;1.00
4795;DHT22;2411;47.060;15.064;2024-01-11T09:40:19;-3.00;1.00
4795;DHT22;2411;47.060;15.064;2024-01-11T09:42:46;-2.90;1.00
4795;DHT22;2411;47.060;15.064;2024-01-11T09:45:14;-2.90;1.00
4795;DHT22;2411;47.060;15.064;2024-01-11T09:47:45;-2.80;1.00
4795;DHT22;2411;47.060;15.064;2024-01-11T09:50:15;-2.70;1.00
4795;DHT22;2411;47.060;15.064;2024-01-11T09:52:49;-2.60;1.00
4795;DHT22;2411;47.060;15.064;2024-01-11T09:55:18;-2.50;1.00
4795;DHT22;2411;47.060;15.064;2024-01-11T09:57:47;-2.40;1.00
4795;DHT22;2411;47.060;15.064;2024-01-11T10:00:18;-2.40;1.00
4795;DHT22;2411;47.060;15.064;2024-01-11T10:02:46;-2.30;1.00
4795;DHT22;2411;47.060;15.064;2024-01-11T10:05:15;-2.30;1.00
4795;DHT22;2411;47.060;15.064;2024-01-11T10:07:43;-2.20;1.00
4795;DHT22;2411;47.060;15.064;2024-01-11T10:10:10;-2.10;1.00
4795;DHT22;2411;47.060;15.064;2024-01-11T10:12:37;-2.10;1.00
4795;DHT22;2411;47.060;15.064;2024-01-11T10:15:09;-1.90;1.00
4795;DHT22;2411;47.060;15.064;2024-01-11T10:17:44;-1.90;1.00
4795;DHT22;2411;47.060;15.064;2024-01-11T10:20:12;-1.80;1.00
4795;DHT22;2411;47.060;15.064;2024-01-11T10:22:46;-1.70;1.00
4795;DHT22;2411;47.060;15.064;2024-01-11T10:25:16;-1.70;1.00
4795;DHT22;2411;47.060;15.064;2024-01-11T10:27:45;-1.60;1.00
4795;DHT22;2411;47.060;15.064;2024-01-11T10:30:13;-1.50;1.00
4795;DHT22;2411;47.060;15.064;2024-01-11T10:32:44;-1.40;1.00
4795;DHT22;2411;47.060;15.064;2024-01-11T10:35:11;-1.30;1.00
4795;DHT22;2411;47.060;15.064;2024-01-11T10:37:39;-1.30;1.00
4795;DHT22;2411;47.060;15.064;2024-01-11T10:40:08;-1.20;1.00
4795;DHT22;2411;47.060;15.064;2024-01-11T10:42:45;-1.10;1.00
4795;DHT22;2411;47.060;15.064;2024-01-11T10:45:16;-1.00;1.00
4795;DHT22;2411;47.060;15.064;2024-01-11T10:48:10;-0.90;1.00
4795;DHT22;2411;47.060;15.064;2024-01-11T10:50:44;-0.90;1.00
4795;DHT22;2411;47.060;15.064;2024-01-11T10:55:42;-0.70;1.00
4795;DHT22;2411;47.060;15.064;2024-01-11T10:58:11;-0.80;1.00
4795;DHT22;2411;47.060;15.064;2024-01-11T11:00:38;-0.70;1.00
4795;DHT22;2411;47.060;15.064;2024-01-11T11:03:07;-0.60;1.00
4795;DHT22;2411;47.060;15.064;2024-01-11T11:05:36;-0.50;1.00
4795;DHT22;2411;47.060;15.064;2024-01-11T11:08:05;-0.40;1.00
4795;DHT22;2411;47.060;15.064;2024-01-11T11:10:34;-0.40;1.00
4795;DHT22;2411;47.060;15.064;2024-01-11T11:13:02;-0.40;1.00
4795;DHT22;2411;47.060;15.064;2024-01-11T11:15:31;-0.30;1.00
4795;DHT22;2411;47.060;15.064;2024-01-11T11:17:58;-0.30;1.00
4795;DHT22;2411;47.060;15.064;2024-01-11T11:20:28;-0.10;1.00
4795;DHT22;2411;47.060;15.064;2024-01-11T11:23:08;-0.10;1.00
4795;DHT22;2411;47.060;15.064;2024-01-11T11:25:37;0.00;1.00
4795;DHT22;2411;47.060;15.064;2024-01-11T11:28:06;0.10;1.00
4795;DHT22;2411;47.060;15.064;2024-01-11T11:30:37;0.10;1.00
4795;DHT22;2411;47.060;15.064;2024-01-11T11:33:18;0.20;1.00
4795;DHT22;2411;47.060;15.064;2024-01-11T11:35:46;0.20;1.00
4795;DHT22;2411;47.060;15.064;2024-01-11T11:38:18;0.30;1.00
4795;DHT22;2411;47.060;15.064;2024-01-11T11:40:48;0.30;1.00
4795;DHT22;2411;47.060;15.064;2024-01-11T11:43:17;0.30;1.00
4795;DHT22;2411;47.060;15.064;2024-01-11T11:45:49;0.40;1.00
4795;DHT22;2411;47.060;15.064;2024-01-11T11:51:22;0.60;1.00
4795;DHT22;2411;47.060;15.064;2024-01-11T11:53:53;0.70;1.00
4795;DHT22;2411;47.060;15.064;2024-01-11T11:56:22;0.70;1.00
4795;DHT22;2411;47.060;15.064;2024-01-11T11:58:50;0.80;1.00
4795;DHT22;2411;47.060;15.064;2024-01-11T12:01:19;0.90;1.00
4795;DHT22;2411;47.060;15.064;2024-01-11T12:03:47;1.00;1.00
4795;DHT22;2411;47.060;15.064;2024-01-11T12:06:18;1.00;1.00
4795;DHT22;2411;47.060;15.064;2024-01-11T12:08:47;1.10;1.00
4795;DHT22;2411;47.060;15.064;2024-01-11T12:11:18;1.10;1.00
4795;DHT22;2411;47.060;15.064;2024-01-11T12:13:49;1.20;1.00
4795;DHT22;2411;47.060;15.064;2024-01-11T12:16:16;1.20;1.00
4795;DHT22;2411;47.060;15.064;2024-01-11T12:18:44;1.30;1.00
4795;DHT22;2411;47.060;15.064;2024-01-11T12:21:11;1.40;1.00
4795;DHT22;2411;47.060;15.064;2024-01-11T12:23:39;1.50;1.00
4795;DHT22;2411;47.060;15.064;2024-01-11T12:26:07;1.60;1.00
4795;DHT22;2411;47.060;15.064;2024-01-11T12:28:43;1.60;1.00
4795;DHT22;2411;47.060;15.064;2024-01-11T12:31:12;1.60;1.00
4795;DHT22;2411;47.060;15.064;2024-01-11T12:33:40;1.60;1.00
4795;DHT22;2411;47.060;15.064;2024-01-11T12:36:08;1.60;1.00
4795;DHT22;2411;47.060;15.064;2024-01-11T12:38:36;1.60;1.00
4795;DHT22;2411;47.060;15.064;2024-01-11T12:41:04;1.60;1.00
4795;DHT22;2411;47.060;15.064;2024-01-11T12:43:33;1.60;1.00
4795;DHT22;2411;47.060;15.064;2024-01-11T12:46:02;1.70;1.00
4795;DHT22;2411;47.060;15.064;2024-01-11T12:48:29;1.70;1.00
4795;DHT22;2411;47.060;15.064;2024-01-11T12:50:58;1.70;1.00
4795;DHT22;2411;47.060;15.064;2024-01-11T12:53:50;1.70;1.00
4795;DHT22;2411;47.060;15.064;2024-01-11T12:56:18;1.80;1.00
4795;DHT22;2411;47.060;15.064;2024-01-11T12:58:49;1.90;1.00
4795;DHT22;2411;47.060;15.064;2024-01-11T13:01:16;1.90;1.00
4795;DHT22;2411;47.060;15.064;2024-01-11T13:03:44;2.00;1.00
4795;DHT22;2411;47.060;15.064;2024-01-11T13:06:15;2.00;1.00
4795;DHT22;2411;47.060;15.064;2024-01-11T13:08:42;2.00;1.00
4795;DHT22;2411;47.060;15.064;2024-01-11T13:11:10;2.10;1.00
4795;DHT22;2411;47.060;15.064;2024-01-11T13:13:40;2.10;1.00
4795;DHT22;2411;47.060;15.064;2024-01-11T13:16:08;2.10;1.00
4795;DHT22;2411;47.060;15.064;2024-01-11T13:18:41;2.10;1.00
4795;DHT22;2411;47.060;15.064;2024-01-11T13:21:09;2.20;1.00
4795;DHT22;2411;47.060;15.064;2024-01-11T13:23:39;2.30;1.00
4795;DHT22;2411;47.060;15.064;2024-01-11T13:26:07;2.40;1.00
4795;DHT22;2411;47.060;15.064;2024-01-11T13:28:35;2.40;1.00
4795;DHT22;2411;47.060;15.064;2024-01-11T13:31:03;2.40;1.00
4795;DHT22;2411;47.060;15.064;2024-01-11T13:33:30;2.50;1.00
4795;DHT22;2411;47.060;15.064;2024-01-11T13:35:58;2.50;1.00
4795;DHT22;2411;47.060;15.064;2024-01-11T13:38:26;2.50;1.00
4795;DHT22;2411;47.060;15.064;2024-01-11T13:40:53;2.50;1.00
4795;DHT22;2411;47.060;15.064;2024-01-11T13:43:20;2.60;1.00
4795;DHT22;2411;47.060;15.064;2024-01-11T13:45:48;2.50;1.00
4795;DHT22;2411;47.060;15.064;2024-01-11T13:48:15;2.60;1.00
4795;DHT22;2411;47.060;15.064;2024-01-11T13:50:43;2.60;1.00
4795;DHT22;2411;47.060;15.064;2024-01-11T13:53:10;2.60;1.00
4795;DHT22;2411;47.060;15.064;2024-01-11T13:55:37;2.70;1.00
4795;DHT22;2411;47.060;15.064;2024-01-11T13:58:06;2.70;1.00
4795;DHT22;2411;47.060;15.064;2024-01-11T14:00:34;2.70;1.00
4795;DHT22;2411;47.060;15.064;2024-01-11T14:03:02;2.70;1.00
4795;DHT22;2411;47.060;15.064;2024-01-11T14:05:30;2.70;1.00
4795;DHT22;2411;47.060;15.064;2024-01-11T14:07:58;2.70;1.00
4795;DHT22;2411;47.060;15.064;2024-01-11T14:10:27;2.50;1.00
4795;DHT22;2411;47.060;15.064;2024-01-11T14:12:55;2.60;1.00
4795;DHT22;2411;47.060;15.064;2024-01-11T14:15:22;2.50;1.00
4795;DHT22;2411;47.060;15.064;2024-01-11T14:17:50;2.50;1.00
4795;DHT22;2411;47.060;15.064;2024-01-11T14:20:17;2.50;1.00
4795;DHT22;2411;47.060;15.064;2024-01-11T14:22:45;2.40;1.00
4795;DHT22;2411;47.060;15.064;2024-01-11T14:25:20;2.40;1.00
4795;DHT22;2411;47.060;15.064;2024-01-11T14:27:48;2.40;1.00
4795;DHT22;2411;47.060;15.064;2024-01-11T14:30:16;2.40;1.00
4795;DHT22;2411;47.060;15.064;2024-01-11T14:32:44;2.40;1.00
4795;DHT22;2411;47.060;15.064;2024-01-11T14:35:13;2.30;1.00
4795;DHT22;2411;47.060;15.064;2024-01-11T14:37:41;2.30;1.00
4795;DHT22;2411;47.060;15.064;2024-01-11T14:40:10;2.20;1.00
4795;DHT22;2411;47.060;15.064;2024-01-11T14:42:38;2.10;1.00
4795;DHT22;2411;47.060;15.064;2024-01-11T14:45:06;2.00;1.00
4795;DHT22;2411;47.060;15.064;2024-01-11T14:47:34;2.00;1.00
4795;DHT22;2411;47.060;15.064;2024-01-11T14:50:03;1.80;1.00
4795;DHT22;2411;47.060;15.064;2024-01-11T14:52:31;1.70;1.00
4795;DHT22;2411;47.060;15.064;2024-01-11T14:54:59;1.60;1.00
4795;DHT22;2411;47.060;15.064;2024-01-11T14:57:26;1.50;1.00
4795;DHT22;2411;47.060;15.064;2024-01-11T14:59:53;1.30;1.00
4795;DHT22;2411;47.060;15.064;2024-01-11T15:02:21;1.20;1.00
4795;DHT22;2411;47.060;15.064;2024-01-11T15:04:49;1.20;1.00
4795;DHT22;2411;47.060;15.064;2024-01-11T15:07:16;1.10;1.00
4795;DHT22;2411;47.060;15.064;2024-01-11T15:09:43;1.10;1.00
4795;DHT22;2411;47.060;15.064;2024-01-11T15:12:10;0.90;1.00
4795;DHT22;2411;47.060;15.064;2024-01-11T15:14:37;0.80;1.00
4795;DHT22;2411;47.060;15.064;2024-01-11T15:17:05;0.70;1.00
4795;DHT22;2411;47.060;15.064;2024-01-11T15:19:32;0.60;1.00
4795;DHT22;2411;47.060;15.064;2024-01-11T15:21:59;0.50;1.00
4795;DHT22;2411;47.060;15.064;2024-01-11T15:24:26;0.50;1.00
4795;DHT22;2411;47.060;15.064;2024-01-11T15:26:55;0.40;1.00
4795;DHT22;2411;47.060;15.064;2024-01-11T15:29:23;0.20;1.00
4795;DHT22;2411;47.060;15.064;2024-01-11T15:31:50;0.10;1.00
4795;DHT22;2411;47.060;15.064;2024-01-11T15:34:17;0.00;1.00
4795;DHT22;2411;47.060;15.064;2024-01-11T15:36:46;0.00;1.00
4795;DHT22;2411;47.060;15.064;2024-01-11T15:39:13;0.00;1.00
4795;DHT22;2411;47.060;15.064;2024-01-11T15:41:54;-0.10;1.00
4795;DHT22;2411;47.060;15.064;2024-01-11T15:44:23;-0.20;1.00
4795;DHT22;2411;47.060;15.064;2024-01-11T15:46:52;-0.20;1.00
4795;DHT22;2411;47.060;15.064;2024-01-11T15:49:19;-0.20;1.00
4795;DHT22;2411;47.060;15.064;2024-01-11T15:51:47;-0.20;1.00
4795;DHT22;2411;47.060;15.064;2024-01-11T15:54:14;-0.30;1.00
4795;DHT22;2411;47.060;15.064;2024-01-11T15:56:41;-0.30;1.00
4795;DHT22;2411;47.060;15.064;2024-01-11T15:59:08;-0.40;1.00
4795;DHT22;2411;47.060;15.064;2024-01-11T16:01:35;-0.50;1.00
4795;DHT22;2411;47.060;15.064;2024-01-11T16:04:22;-0.60;1.00
4795;DHT22;2411;47.060;15.064;2024-01-11T16:06:50;-0.90;1.00
4795;DHT22;2411;47.060;15.064;2024-01-11T16:09:17;-1.10;1.00
4795;DHT22;2411;47.060;15.064;2024-01-11T16:11:45;-1.30;1.00
4795;DHT22;2411;47.060;15.064;2024-01-11T16:14:13;-1.30;1.00
4795;DHT22;2411;47.060;15.064;2024-01-11T16:16:40;-1.40;1.00